Time;durP1;ratioP1;P1;durP2;ratioP2;P2;SDS_P1;SDS_P2;PMS_P1;PMS_P2;Temp;Humidity;BMP_temperature;BMP_pressure;BME280_temperature;BME280_humidity;BME280_pressure;Samples;Min_cycle;Max_cycle;Signal;HPM_P1;HPM_P2
2022/11/20 00:01:44;;;;;;;4.07;2.05;;;2.90;99.90;;;2.73;100.00;99970.13;4999087;28;20232;-85
2022/11/20 00:04:13;;;;;;;1.88;1.00;;;2.90;99.90;;;2.74;100.00;99961.44;4995257;28;20238;-84
2022/11/20 00:06:40;;;;;;;1.95;1.08;;;2.90;99.90;;;2.69;100.00;99963.91;5011430;28;20236;-85
2022/11/20 00:09:10;;;;;;;1.35;1.20;;;2.80;99.90;;;2.63;100.00;99942.81;5016203;28;20228;-84
2022/11/20 00:11:39;;;;;;;1.08;0.98;;;2.80;99.90;;;2.72;100.00;99956.19;5009678;28;20232;-84
2022/11/20 00:14:06;;;;;;;1.80;1.05;;;2.60;99.90;;;2.74;100.00;99967.56;5011289;28;20266;-84
2022/11/20 00:16:34;;;;;;;1.98;1.25;;;2.90;99.90;;;2.80;100.00;99965.16;5009628;28;20292;-84
2022/11/20 00:19:03;;;;;;;1.80;1.70;;;2.90;99.90;;;2.80;100.00;99967.75;5011858;28;20327;-85
2022/11/20 00:21:31;;;;;;;0.70;0.70;;;2.90;99.90;;;2.80;100.00;99953.81;5002643;28;20250;-86
2022/11/20 00:23:59;;;;;;;1.02;0.85;;;2.90;99.90;;;2.78;100.00;99951.16;4994521;28;20224;-84
2022/11/20 00:26:28;;;;;;;1.02;0.90;;;2.90;99.90;;;2.74;100.00;99961.44;5010269;28;20239;-84
2022/11/20 00:28:59;;;;;;;1.10;1.00;;;2.60;99.90;;;2.79;100.00;99960.75;5007561;28;20224;-84
2022/11/20 00:31:33;;;;;;;1.80;1.35;;;2.90;99.90;;;2.71;100.00;99954.41;4992547;28;20224;-86
2022/11/20 00:34:01;;;;;;;2.35;1.45;;;2.90;99.90;;;2.75;100.00;99950.16;5000554;28;20243;-85
2022/11/20 00:36:34;;;;;;;0.77;0.77;;;2.90;99.90;;;2.76;100.00;99952.81;5011268;28;20266;-84
2022/11/20 00:39:02;;;;;;;2.15;1.30;;;2.90;99.90;;;2.87;100.00;99968.84;5010771;28;20220;-84
2022/11/20 00:41:30;;;;;;;2.05;1.38;;;2.90;99.90;;;2.68;100.00;99950.81;5009576;28;20231;-84
2022/11/20 00:43:58;;;;;;;1.48;0.95;;;2.80;99.90;;;2.71;100.00;99966.56;5011450;28;20295;-83
2022/11/20 00:46:27;;;;;;;0.82;0.82;;;2.80;99.90;;;2.73;100.00;99973.63;5010076;28;20220;-83
2022/11/20 00:48:56;;;;;;;2.17;1.98;;;2.90;99.90;;;2.78;100.00;99977.28;4999694;23;20270;-79
2022/11/20 00:51:26;;;;;;;0.20;0.20;;;2.90;99.90;;;2.70;100.00;99968.28;5009295;28;20232;-79
2022/11/20 00:53:59;;;;;;;0.30;0.30;;;2.90;99.90;;;2.74;100.00;99969.28;4998514;28;20220;-80
2022/11/20 00:56:27;;;;;;;0.10;0.10;;;2.90;99.90;;;2.78;100.00;99979.00;5011782;28;20307;-79
2022/11/20 00:58:55;;;;;;;0.63;0.63;;;2.90;99.90;;;2.78;100.00;99965.94;5009104;28;20227;-79
2022/11/20 01:01:25;;;;;;;0.10;0.10;;;2.90;99.90;;;2.78;100.00;99977.28;4996682;28;20277;-79
2022/11/20 01:03:59;;;;;;;0.10;0.10;;;2.90;99.90;;;2.75;100.00;99973.66;5009460;28;20215;-78
2022/11/20 01:06:29;;;;;;;0.50;0.50;;;2.90;99.90;;;2.82;100.00;99973.03;5008118;28;20230;-78
2022/11/20 01:09:00;;;;;;;0.20;0.20;;;3.00;99.90;;;2.84;100.00;99980.06;4990267;28;20323;-78
2022/11/20 01:11:32;;;;;;;0.20;0.20;;;3.00;99.90;;;2.85;100.00;99973.13;4999846;28;20291;-77
2022/11/20 01:14:01;;;;;;;0.20;0.20;;;3.00;99.90;;;2.88;100.00;99973.22;4993506;28;20227;-78
2022/11/20 01:16:37;;;;;;;0.20;0.20;;;3.00;99.90;;;2.79;100.00;99965.97;4984031;28;20227;-77
2022/11/20 01:19:10;;;;;;;0.20;0.20;;;3.00;99.90;;;2.80;100.00;99967.75;5004952;28;20227;-77
2022/11/20 01:21:45;;;;;;;0.20;0.20;;;2.90;99.90;;;2.73;100.00;99973.63;5002676;28;20223;-77
2022/11/20 01:24:15;;;;;;;0.30;0.30;;;2.90;99.90;;;2.82;100.00;99976.53;5003057;28;20227;-78
2022/11/20 01:26:44;;;;;;;0.30;0.30;;;2.90;99.90;;;2.79;100.00;99970.31;4989767;28;20295;-78
2022/11/20 01:29:23;;;;;;;0.15;0.15;;;2.90;99.90;;;2.75;100.00;99973.66;5007854;28;20234;-78
2022/11/20 01:31:52;;;;;;;0.43;0.43;;;2.90;99.90;;;2.75;100.00;99964.13;5006497;28;20239;-77
2022/11/20 01:34:22;;;;;;;1.80;1.30;;;2.90;99.90;;;2.79;100.00;99975.53;5001842;28;20238;-77
2022/11/20 01:36:51;;;;;;;1.75;0.88;;;2.90;99.90;;;2.71;100.00;99964.84;5003715;28;20236;-77
2022/11/20 01:39:23;;;;;;;4.03;1.60;;;2.90;99.90;;;2.79;100.00;99970.31;4987008;28;20227;-77
2022/11/20 01:44:58;;;;;;;8.88;3.15;;;3.00;99.90;;;2.75;100.00;99971.94;5005414;28;20600;-77
2022/11/20 01:47:36;;;;;;;3.90;1.52;;;2.90;99.90;;;2.77;100.00;99961.56;4988502;28;20306;-78
2022/11/20 01:50:23;;;;;;;7.63;2.95;;;2.90;99.90;;;2.82;100.00;99967.81;4983908;28;20246;-78
2022/11/20 01:53:01;;;;;;;3.97;1.50;;;3.00;99.90;;;2.79;100.00;99970.31;4995382;28;20275;-78
2022/11/20 01:55:34;;;;;;;6.80;2.40;;;2.90;99.90;;;2.79;100.00;99960.75;4985602;28;20303;-78
2022/11/20 01:58:03;;;;;;;4.53;1.55;;;2.90;99.90;;;2.77;100.00;99967.66;4984514;28;20232;-77
2022/11/20 02:00:31;;;;;;;7.13;2.72;;;2.90;99.90;;;2.76;100.00;99973.72;5006582;28;20231;-78
2022/11/20 02:03:04;;;;;;;4.65;1.67;;;2.90;99.90;;;2.79;100.00;99965.09;5006417;28;20242;-78
2022/11/20 02:05:49;;;;;;;5.00;1.75;;;2.90;99.90;;;2.78;100.00;99960.72;4972268;28;20235;-77
2022/11/20 02:08:19;;;;;;;5.22;2.00;;;2.90;99.90;;;2.86;100.00;99974.91;4979413;28;20418;-77
2022/11/20 02:10:47;;;;;;;3.25;1.63;;;3.00;99.90;;;2.73;100.00;99960.56;4975926;28;20239;-77
2022/11/20 02:16:02;;;;;;;5.10;1.77;;;2.80;99.90;;;2.71;100.00;99945.69;4983318;28;20236;-78
2022/11/20 02:18:30;;;;;;;4.80;1.52;;;2.80;99.90;;;2.67;100.00;99943.81;4983913;28;20247;-78
2022/11/20 02:21:15;;;;;;;7.60;2.58;;;2.00;99.90;;;2.70;100.00;99936.97;4984161;28;20239;-78
2022/11/20 02:24:04;;;;;;;5.50;1.90;;;2.90;99.90;;;2.84;100.00;99963.53;4986164;28;20239;-78
2022/11/20 02:26:40;;;;;;;8.30;2.70;;;2.90;99.90;;;2.85;100.00;99963.56;4986995;28;20231;-78
2022/11/20 02:29:08;;;;;;;5.10;1.88;;;2.90;99.90;;;2.74;100.00;99949.28;4985858;28;20258;-78
2022/11/20 02:31:42;;;;;;;45.13;15.82;;;2.90;99.90;;;2.76;100.00;99950.22;4998146;28;20955;-78
2022/11/20 02:34:09;;;;;;;7.68;2.35;;;2.90;99.90;;;2.68;100.00;99946.47;4974190;28;20232;-78
2022/11/20 02:36:40;;;;;;;11.48;2.95;;;2.90;99.90;;;2.76;100.00;99949.34;4998685;28;20652;-78
2022/11/20 02:39:12;;;;;;;11.18;2.88;;;2.80;99.90;;;2.75;100.00;99940.63;4987336;28;20299;-79
2022/11/20 02:41:39;;;;;;;10.18;2.67;;;2.90;99.90;;;2.78;100.00;99948.53;4985109;28;20235;-78
2022/11/20 02:44:07;;;;;;;11.25;2.95;;;2.40;99.90;;;2.77;100.00;99948.50;4986546;28;20244;-78
2022/11/20 02:46:46;;;;;;;7.85;2.45;;;2.90;99.90;;;2.82;100.00;99954.75;5001159;28;20226;-78
2022/11/20 02:49:23;;;;;;;4.32;1.65;;;2.60;99.90;;;2.72;100.00;99948.34;5004548;28;20236;-78
2022/11/20 02:51:50;;;;;;;3.00;1.23;;;2.90;99.90;;;2.78;100.00;99959.00;4999043;28;20240;-78
2022/11/20 02:54:18;;;;;;;5.15;2.05;;;2.90;99.90;;;2.80;100.00;99959.94;4980338;28;20997;-78
2022/11/20 02:56:45;;;;;;;3.03;1.25;;;2.90;99.90;;;2.69;100.00;99949.97;4997649;28;20250;-78
2022/11/20 02:59:12;;;;;;;4.78;1.48;;;2.90;99.90;;;2.76;100.00;99959.78;5005116;28;20236;-78
2022/11/20 03:01:42;;;;;;;16.85;4.85;;;2.90;99.90;;;2.79;100.00;99952.94;5000102;28;20232;-78
2022/11/20 03:04:10;;;;;;;5.10;1.45;;;2.80;99.90;;;2.76;100.00;99965.88;5002590;28;20254;-78
2022/11/20 03:06:38;;;;;;;8.85;2.35;;;2.90;99.90;;;2.76;100.00;99971.09;5002658;28;20704;-78
2022/11/20 03:09:05;;;;;;;11.52;3.15;;;2.80;99.90;;;2.75;100.00;99963.22;4991115;28;20228;-78
2022/11/20 03:11:33;;;;;;;5.13;1.70;;;2.80;99.90;;;2.86;100.00;99965.34;5004958;28;20255;-77
2022/11/20 03:14:05;;;;;;;7.57;2.08;;;2.90;99.90;;;2.70;100.00;99941.31;5002342;28;20241;-78
2022/11/20 03:16:33;;;;;;;15.15;4.38;;;2.80;99.90;;;2.57;100.00;99929.53;4994642;28;20243;-77
2022/11/20 03:19:03;;;;;;;7.65;2.17;;;2.70;99.90;;;2.62;100.00;99937.56;5000314;28;20235;-78
2022/11/20 03:21:36;;;;;;;7.35;2.17;;;2.70;99.90;;;2.60;100.00;99932.28;5003383;28;20227;-80
2022/11/20 03:24:04;;;;;;;10.35;2.83;;;2.80;99.90;;;2.69;100.00;99944.75;4996656;28;20263;-78
2022/11/20 03:26:32;;;;;;;9.40;2.67;;;2.70;99.90;;;2.73;100.00;99942.28;5000797;28;20232;-79
2022/11/20 03:29:04;;;;;;;5.28;1.90;;;2.70;99.90;;;2.82;100.00;99966.09;5003317;28;20246;-79
2022/11/20 03:31:37;;;;;;;10.32;2.55;;;2.80;99.90;;;2.82;100.00;99955.63;4999141;28;20577;-78
2022/11/20 03:34:05;;;;;;;2.70;1.10;;;2.90;99.90;;;2.88;100.00;99963.66;4988314;28;20235;-78
2022/11/20 03:36:32;;;;;;;13.18;4.00;;;3.00;99.90;;;2.81;100.00;99964.31;5008360;28;20251;-78
2022/11/20 03:38:59;;;;;;;6.15;2.00;;;3.00;99.90;;;2.91;100.00;99964.59;5003619;28;20236;-78
2022/11/20 03:41:30;;;;;;;7.47;2.55;;;2.90;99.90;;;2.94;100.00;99964.69;5009254;28;20227;-78
2022/11/20 03:44:00;;;;;;;10.85;3.38;;;3.00;99.90;;;2.91;100.00;99960.28;5006455;28;20254;-78
2022/11/20 03:46:29;;;;;;;8.32;2.47;;;3.00;99.90;;;2.98;100.00;99950.91;5004171;28;20658;-78
2022/11/20 03:49:00;;;;;;;7.35;2.30;;;2.20;99.90;;;2.83;100.00;99933.91;5004668;28;20232;-78
2022/11/20 03:51:31;;;;;;;8.93;2.85;;;3.00;99.90;;;2.85;100.00;99944.41;5004596;28;20228;-78
2022/11/20 03:54:02;;;;;;;8.52;2.58;;;2.90;99.90;;;2.99;100.00;99952.69;5006637;28;20228;-78
2022/11/20 03:56:34;;;;;;;9.57;2.95;;;3.20;99.90;;;2.84;100.00;99943.50;5003214;28;20241;-77
2022/11/20 03:59:02;;;;;;;5.53;2.00;;;3.00;99.90;;;2.92;100.00;99961.16;5003235;28;20251;-78
2022/11/20 04:01:36;;;;;;;7.32;2.42;;;3.10;99.90;;;2.92;100.00;99951.59;5000214;28;20232;-78
2022/11/20 04:04:04;;;;;;;9.32;2.45;;;3.00;99.90;;;2.92;100.00;99940.25;5002798;28;20231;-78
2022/11/20 04:06:37;;;;;;;12.73;3.65;;;3.10;99.90;;;2.84;100.00;99946.13;5004921;28;20234;-79
2022/11/20 04:09:06;;;;;;;8.45;2.40;;;2.90;99.90;;;2.84;100.00;99940.91;5005429;28;20220;-79
2022/11/20 04:11:36;;;;;;;10.25;2.70;;;2.90;99.90;;;2.96;100.00;99943.00;4988738;28;20225;-78
2022/11/20 04:14:11;;;;;;;7.70;2.65;;;3.00;99.90;;;2.93;100.00;99947.25;5004987;28;20281;-78
2022/11/20 04:16:39;;;;;;;13.00;3.38;;;2.90;99.90;;;2.88;100.00;99942.78;4992697;28;20245;-78
2022/11/20 04:19:11;;;;;;;12.07;3.28;;;3.00;99.90;;;2.94;100.00;99938.59;5006422;28;20277;-78
2022/11/20 04:21:42;;;;;;;12.73;3.97;;;1.80;99.90;;;2.88;100.00;99929.72;5001883;28;20238;-77
2022/11/20 04:24:10;;;;;;;11.55;3.08;;;3.00;99.90;;;2.89;100.00;99920.16;4985833;28;20244;-77
2022/11/20 04:26:38;;;;;;;11.70;2.95;;;3.00;99.90;;;2.87;100.00;99920.09;5005823;28;20226;-78
2022/11/20 04:29:11;;;;;;;11.82;3.22;;;2.20;99.90;;;2.89;100.00;99922.78;5008066;28;20234;-78
2022/11/20 04:31:38;;;;;;;7.32;2.20;;;3.10;99.90;;;2.87;100.00;99927.94;5002159;28;20215;-78
2022/11/20 04:34:07;;;;;;;10.63;2.88;;;3.00;99.90;;;2.95;100.00;99949.09;5004342;28;20242;-79
2022/11/20 04:36:35;;;;;;;9.25;2.75;;;3.00;99.90;;;3.07;100.00;99941.63;4991056;28;20235;-79
2022/11/20 04:39:05;;;;;;;8.95;2.53;;;3.10;99.90;;;2.99;100.00;99953.56;4989816;28;20232;-79
2022/11/20 04:41:36;;;;;;;7.80;2.22;;;3.00;99.90;;;2.95;100.00;99933.41;5007407;28;20227;-79
2022/11/20 04:44:05;;;;;;;9.65;2.67;;;3.10;99.90;;;3.09;100.00;99939.06;5012649;28;20294;-80
2022/11/20 04:46:41;;;;;;;13.07;3.58;;;3.10;99.90;;;3.15;100.00;99932.28;5006731;28;20247;-79
2022/11/20 04:49:10;;;;;;;11.20;3.47;;;2.80;99.90;;;3.05;100.00;99921.53;4990171;28;20238;-79
2022/11/20 04:51:38;;;;;;;12.63;3.70;;;3.20;99.90;;;3.10;100.00;99930.38;4989062;28;20285;-79
2022/11/20 04:54:06;;;;;;;4.20;1.75;;;3.20;99.90;;;3.14;100.00;99929.63;5004930;28;20231;-78
2022/11/20 04:56:34;;;;;;;9.82;2.95;;;3.20;99.90;;;3.15;100.00;99931.41;5005550;28;20234;-78
2022/11/20 04:59:02;;;;;;;11.68;3.05;;;3.30;99.90;;;3.11;100.00;99933.03;5003932;28;20706;-79
2022/11/20 05:01:33;;;;;;;13.05;3.72;;;3.20;99.90;;;3.09;100.00;99919.03;5000471;28;20283;-79
2022/11/20 05:04:01;;;;;;;12.40;3.63;;;3.20;99.90;;;3.15;100.00;99929.69;5012453;28;20336;-79
2022/11/20 05:06:29;;;;;;;7.50;2.60;;;3.60;99.90;;;3.09;100.00;99921.66;5007943;28;20219;-79
2022/11/20 05:08:56;;;;;;;6.07;2.38;;;3.20;99.90;;;3.15;100.00;99926.19;5010753;28;20276;-81
2022/11/20 05:11:28;;;;;;;5.93;2.22;;;3.60;99.90;;;3.09;100.00;99907.72;5019860;28;20251;-81
2022/11/20 05:13:59;;;;;;;10.05;3.33;;;3.20;99.90;;;3.16;100.00;99918.41;5011544;28;20310;-79
2022/11/20 05:16:27;;;;;;;9.60;2.92;;;3.20;99.90;;;3.14;100.00;99922.69;5008623;28;20278;-79
2022/11/20 05:18:55;;;;;;;24.75;7.40;;;2.70;99.90;;;3.15;100.00;99918.34;5004030;28;20236;-79
2022/11/20 05:21:23;;;;;;;6.75;2.30;;;3.30;99.90;;;3.13;100.00;99917.41;4993553;28;20232;-79
2022/11/20 05:23:50;;;;;;;8.70;2.72;;;3.30;99.90;;;3.18;100.00;99924.56;5011568;28;20247;-79
2022/11/20 05:26:21;;;;;;;7.13;2.25;;;3.20;99.90;;;3.27;100.00;99936.13;5011136;28;20232;-78
2022/11/20 05:28:50;;;;;;;6.80;2.72;;;3.30;99.90;;;3.26;100.00;99937.84;5009669;28;20232;-79
2022/11/20 05:31:24;;;;;;;8.05;2.50;;;3.40;99.90;;;3.23;100.00;99932.53;5012064;28;20227;-80
2022/11/20 05:33:57;;;;;;;10.95;3.40;;;3.30;99.90;;;3.21;100.00;99924.63;4999232;28;20261;-80
2022/11/20 05:36:25;;;;;;;3.60;1.77;;;3.20;99.90;;;3.25;100.00;99916.91;4968205;28;20233;-80
2022/11/20 05:38:53;;;;;;;5.28;2.42;;;3.40;99.90;;;3.32;100.00;99921.47;4983258;28;20234;-81
2022/11/20 05:41:27;;;;;;;6.75;2.58;;;3.40;99.90;;;3.37;100.00;99919.88;4996075;28;20238;-80
2022/11/20 05:43:57;;;;;;;3.30;2.33;;;3.40;99.90;;;3.27;100.00;99903.03;4994197;28;20231;-80
2022/11/20 05:46:24;;;;;;;6.75;2.70;;;3.60;99.90;;;3.35;100.00;99918.94;5009392;28;20310;-80
2022/11/20 05:48:56;;;;;;;9.32;3.20;;;3.50;99.90;;;3.24;100.00;99908.16;5007839;28;20246;-80
2022/11/20 05:51:24;;;;;;;5.57;2.22;;;3.40;99.90;;;3.28;100.00;99909.16;5005838;28;20228;-79
2022/11/20 05:53:51;;;;;;;8.98;3.33;;;4.20;99.90;;;3.26;100.00;99906.50;5008690;28;20239;-79
2022/11/20 05:56:21;;;;;;;8.82;3.22;;;3.40;99.90;;;3.31;100.00;99907.50;5002339;28;20227;-79
2022/11/20 05:58:49;;;;;;;2.67;1.77;;;3.40;99.90;;;3.31;100.00;99907.50;4999280;28;20290;-78
2022/11/20 06:01:20;;;;;;;8.43;2.90;;;3.60;99.90;;;3.33;100.00;99902.31;5001735;28;20247;-79
2022/11/20 06:03:50;;;;;;;13.63;4.65;;;3.50;99.90;;;3.29;100.00;99901.34;4990003;28;20251;-79
2022/11/20 06:06:19;;;;;;;8.77;3.33;;;3.40;99.90;;;3.36;100.00;99907.66;5002776;28;20224;-79
2022/11/20 06:08:46;;;;;;;7.30;2.83;;;3.70;99.90;;;3.40;100.00;99910.41;5002132;28;20298;-79
2022/11/20 06:11:15;;;;;;;8.70;2.95;;;3.50;99.90;;;3.44;100.00;99912.25;4983691;28;20262;-79
2022/11/20 06:13:42;;;;;;;7.75;2.60;;;3.60;99.90;;;3.41;100.00;99904.31;5004718;28;20230;-79
2022/11/20 06:16:12;;;;;;;6.85;2.40;;;3.60;99.90;;;3.40;100.00;99896.44;5005428;28;20232;-79
2022/11/20 06:18:40;;;;;;;10.52;3.33;;;3.60;99.90;;;3.40;100.00;99897.31;5006237;28;20315;-79
2022/11/20 06:21:20;;;;;;;9.02;2.90;;;3.50;99.90;;;3.47;100.00;99903.63;5013925;28;20295;-81
2022/11/20 06:23:49;;;;;;;13.90;4.50;;;3.50;99.90;;;3.48;100.00;99911.50;5008461;28;20243;-79
2022/11/20 06:26:22;;;;;;;8.07;2.70;;;3.60;99.90;;;3.53;100.00;99912.53;5005567;28;20239;-79
2022/11/20 06:28:50;;;;;;;8.68;2.75;;;3.60;99.90;;;3.52;100.00;99905.50;4990315;28;20525;-79
2022/11/20 06:31:22;;;;;;;10.80;3.42;;;3.70;99.90;;;3.52;100.00;99908.13;4991857;28;20247;-81
2022/11/20 06:33:50;;;;;;;9.70;3.22;;;3.70;99.90;;;3.63;100.00;99916.28;4990595;28;20297;-79
2022/11/20 06:36:21;;;;;;;6.22;2.15;;;3.70;99.90;;;3.60;100.00;99910.06;5002024;28;20232;-79
2022/11/20 06:38:48;;;;;;;0.60;0.60;;;3.70;99.90;;;3.63;100.00;99908.44;5000300;28;20234;-80
2022/11/20 06:41:19;;;;;;;0.70;0.70;;;3.70;99.90;;;3.62;100.00;99904.06;5008452;28;20322;-79
2022/11/20 06:43:46;;;;;;;0.60;0.60;;;3.80;99.90;;;3.64;100.00;99907.59;5002956;28;20333;-80
2022/11/20 06:46:17;;;;;;;1.50;1.15;;;4.00;99.90;;;3.63;100.00;99908.44;4988586;28;20297;-79
2022/11/20 06:48:47;;;;;;;0.80;0.65;;;3.80;99.90;;;3.69;100.00;99926.91;4989107;28;20228;-79
2022/11/20 06:51:16;;;;;;;2.20;1.30;;;3.80;99.90;;;3.69;100.00;99929.53;4989435;28;20249;-79
2022/11/20 06:53:43;;;;;;;2.75;1.73;;;3.80;99.90;;;3.69;100.00;99932.13;4996515;28;20225;-79
2022/11/20 06:56:10;;;;;;;6.22;2.67;;;3.80;99.90;;;3.72;100.00;99932.22;5001127;28;20264;-79
2022/11/20 06:58:37;;;;;;;7.68;2.95;;;3.80;99.90;;;3.76;100.00;99922.75;4987579;28;20286;-79
2022/11/20 07:01:08;;;;;;;8.20;2.75;;;3.90;99.90;;;3.75;100.00;99918.34;5004699;28;20318;-79
2022/11/20 07:03:37;;;;;;;8.93;2.97;;;3.90;99.90;;;3.70;100.00;99905.16;5007639;28;20231;-79
2022/11/20 07:06:05;;;;;;;8.43;2.72;;;3.90;99.90;;;3.65;100.00;99914.59;4993101;28;20254;-79
2022/11/20 07:08:33;;;;;;;7.60;2.80;;;3.80;99.90;;;3.68;100.00;99929.47;5002388;28;20232;-79
2022/11/20 07:11:04;;;;;;;9.52;3.33;;;3.80;99.90;;;3.72;100.00;99926.13;4989522;28;20247;-79
2022/11/20 07:13:32;;;;;;;8.70;3.78;;;3.80;99.90;;;3.66;100.00;99921.59;5013095;28;20223;-78
2022/11/20 07:16:02;;;;;;;10.57;3.72;;;3.90;99.90;;;3.64;100.00;99919.78;4995335;28;20247;-79
2022/11/20 07:18:30;;;;;;;8.27;2.78;;;3.70;99.90;;;3.67;100.00;99931.22;5010335;28;20313;-79
2022/11/20 07:21:06;;;;;;;5.50;2.13;;;3.80;99.90;;;3.58;100.00;99922.22;5008609;28;20235;-80
2022/11/20 07:23:33;;;;;;;13.20;4.15;;;3.80;99.90;;;3.67;100.00;99935.56;5014514;28;20239;-79
2022/11/20 07:26:09;;;;;;;2.13;1.65;;;3.80;99.90;;;3.63;100.00;99929.34;4998119;28;20267;-79
2022/11/20 07:28:38;;;;;;;9.40;3.17;;;3.70;99.90;;;3.66;100.00;99929.44;5008968;28;20254;-78
2022/11/20 07:31:07;;;;;;;8.20;3.10;;;3.80;99.90;;;3.73;100.00;99938.34;4977233;28;20235;-78
2022/11/20 07:33:38;;;;;;;4.88;2.15;;;3.80;99.90;;;3.72;100.00;99945.31;5007532;28;20282;-78
2022/11/20 07:36:05;;;;;;;3.42;1.70;;;3.90;99.90;;;3.67;100.00;99935.56;5012485;28;20235;-79
2022/11/20 07:38:33;;;;;;;5.40;2.22;;;3.80;99.90;;;3.69;100.00;99937.38;5009233;28;20258;-78
2022/11/20 07:41:01;;;;;;;5.63;2.47;;;3.80;99.90;;;3.71;100.00;99935.69;4993816;28;20223;-78
2022/11/20 07:43:29;;;;;;;0.95;0.95;;;3.80;99.90;;;3.68;100.00;99932.97;5007929;28;20223;-78
2022/11/20 07:45:57;;;;;;;4.60;2.58;;;3.80;99.90;;;3.75;100.00;99936.66;5006105;28;20255;-79
2022/11/20 07:48:25;;;;;;;5.72;2.85;;;3.90;99.90;;;3.80;100.00;99942.91;5008477;28;20330;-79
2022/11/20 07:50:56;;;;;;;10.25;3.38;;;3.90;99.90;;;3.77;100.00;99943.69;5002908;28;20232;-79
2022/11/20 07:53:24;;;;;;;11.00;3.65;;;3.90;99.90;;;3.80;100.00;99948.13;4998098;28;20272;-78
2022/11/20 07:55:52;;;;;;;10.10;4.30;;;3.90;99.90;;;3.87;100.00;99950.06;4998409;28;20231;-78
2022/11/20 07:58:20;;;;;;;3.30;1.77;;;4.00;99.90;;;3.89;100.00;99943.16;5005661;28;20227;-78
2022/11/20 08:00:47;;;;;;;9.00;3.65;;;4.30;99.90;;;3.94;100.00;99957.28;5003141;28;20651;-78
2022/11/20 08:03:15;;;;;;;7.35;2.60;;;4.10;99.90;;;3.94;100.00;99952.06;5003774;28;20243;-78
2022/11/20 08:05:50;;;;;;;8.85;2.90;;;4.00;99.90;;;3.96;100.00;99954.72;5007878;28;20243;-77
2022/11/20 08:08:17;;;;;;;9.57;3.25;;;4.10;99.90;;;3.96;100.00;99958.22;4991646;28;20235;-77
2022/11/20 08:10:44;;;;;;;10.40;3.95;;;4.10;99.90;;;3.90;100.00;99957.13;5006704;28;20256;-78
2022/11/20 08:16:00;;;;;;;10.05;3.40;;;4.30;99.90;;;4.05;100.00;99970.66;5006993;28;20231;-78
2022/11/20 08:18:27;;;;;;;8.30;2.83;;;4.10;99.90;;;4.10;100.00;99977.78;5006612;28;20231;-78
2022/11/20 08:21:03;;;;;;;10.20;3.55;;;4.20;99.90;;;4.15;100.00;99983.16;4986902;28;20227;-78
2022/11/20 08:23:31;;;;;;;12.30;3.78;;;4.20;99.90;;;4.25;100.00;99985.19;5007856;28;20232;-78
2022/11/20 08:26:01;;;;;;;10.48;3.22;;;4.30;99.90;;;4.28;100.00;99995.72;4970462;28;20335;-78
2022/11/20 08:28:33;;;;;;;10.57;3.28;;;4.30;99.90;;;4.32;100.00;100000.19;4988044;28;20226;-78
2022/11/20 08:31:06;;;;;;;13.27;3.90;;;4.00;99.90;;;4.40;100.00;100010.88;5005473;28;20537;-78
2022/11/20 08:33:34;;;;;;;11.65;3.63;;;4.40;99.90;;;4.49;100.00;100019.84;4987868;28;20230;-78
2022/11/20 08:36:06;;;;;;;8.73;2.50;;;4.50;99.90;;;4.54;100.00;100025.22;5024874;23;20336;-77
2022/11/20 08:38:33;;;;;;;2.33;1.75;;;4.60;99.90;;;4.55;100.00;100034.84;5018022;28;20239;-79
2022/11/20 08:41:23;;;;;;;4.63;1.70;;;4.60;99.90;;;4.42;100.00;100024.88;5004054;28;20284;-79
2022/11/20 08:44:03;;;;;;;0.75;0.63;;;4.60;99.90;;;4.56;100.00;100038.34;5028032;28;20235;-79
2022/11/20 08:46:40;;;;;;;5.13;2.10;;;4.60;99.90;;;4.44;100.00;100026.72;4993378;28;20272;-79
2022/11/20 08:49:25;;;;;;;6.70;2.50;;;4.60;99.90;;;4.51;100.00;100043.47;4991593;28;20235;-77
2022/11/20 08:51:55;;;;;;;10.68;3.78;;;4.60;99.90;;;4.45;100.00;100046.81;5013974;23;20265;-74
2022/11/20 08:54:22;;;;;;;10.65;4.55;;;4.60;99.90;;;4.46;100.00;100048.59;4966816;28;20240;-74
2022/11/20 08:56:49;;;;;;;8.38;3.25;;;4.60;99.90;;;4.46;100.00;100048.59;4984711;28;20263;-74
2022/11/20 08:59:16;;;;;;;10.27;4.22;;;4.60;99.90;;;4.60;100.00;100054.19;4968185;28;20319;-74
2022/11/20 09:02:05;;;;;;;10.32;4.30;;;4.70;99.90;;;4.56;100.00;100054.06;4971168;28;20251;-75
2022/11/20 09:04:33;;;;;;;11.40;4.30;;;4.70;99.90;;;4.69;100.00;100064.91;4965068;28;20232;-74
2022/11/20 09:07:01;;;;;;;11.57;3.95;;;4.80;99.90;;;4.67;100.00;100063.09;4967710;28;20234;-75
2022/11/20 09:09:28;;;;;;;11.60;4.20;;;4.80;99.90;;;4.53;100.00;100038.28;4960319;28;20232;-74
2022/11/20 09:11:55;;;;;;;9.65;3.35;;;4.70;99.90;;;4.50;100.00;100042.59;4967948;28;20687;-74
2022/11/20 09:14:28;;;;;;;9.57;3.70;;;4.60;99.90;;;4.57;100.00;100045.38;4962834;28;20236;-74
2022/11/20 09:16:57;;;;;;;10.93;4.03;;;4.70;99.90;;;4.55;100.00;100047.06;4973344;28;20290;-74
2022/11/20 09:19:24;;;;;;;10.40;3.63;;;4.60;99.90;;;4.46;100.00;100045.97;4953292;28;20256;-74
2022/11/20 09:22:02;;;;;;;5.97;2.72;;;4.60;99.90;;;4.56;100.00;100060.19;4984425;28;20235;-74
2022/11/20 09:24:32;;;;;;;9.90;4.10;;;4.70;99.90;;;4.49;100.00;100050.41;4994103;28;20242;-74
2022/11/20 09:27:04;;;;;;;1.60;1.50;;;4.60;99.90;;;4.57;100.00;100055.84;4974540;28;20295;-74
2022/11/20 09:29:32;;;;;;;2.20;2.00;;;4.60;99.90;;;4.60;100.00;100062.03;4962052;28;20235;-74
2022/11/20 09:31:59;;;;;;;9.93;3.45;;;4.70;99.90;;;4.59;100.00;100056.75;4970519;28;20259;-74
2022/11/20 09:34:26;;;;;;;9.20;3.40;;;4.70;99.90;;;4.53;100.00;100053.97;4971244;28;20252;-73
2022/11/20 09:36:54;;;;;;;10.25;4.10;;;4.70;99.90;;;4.52;100.00;100055.72;4964762;28;20318;-74
2022/11/20 09:39:21;;;;;;;10.85;3.60;;;4.70;99.90;;;4.47;100.00;100052.09;4964923;28;20294;-74
2022/11/20 09:42:11;;;;;;;13.60;4.63;;;4.60;99.90;;;4.64;100.00;100073.50;4964992;28;20314;-73
2022/11/20 09:44:53;;;;;;;11.40;4.22;;;4.70;99.90;;;4.57;100.00;100063.69;4970498;28;20232;-73
2022/11/20 09:47:54;;;;;;;11.50;4.20;;;4.70;99.90;;;4.64;100.00;100069.13;4977048;28;20243;-73
2022/11/20 09:50:34;;;;;;;9.90;3.58;;;4.70;99.90;;;4.70;100.00;100079.78;5001252;28;20231;-74
2022/11/20 09:53:26;;;;;;;10.73;3.80;;;4.80;99.90;;;4.47;100.00;100062.56;4957825;28;20680;-74
2022/11/20 09:55:56;;;;;;;10.75;3.72;;;4.60;99.90;;;4.66;100.00;100074.41;5004809;28;20307;-74
2022/11/20 09:58:59;;;;;;;8.48;2.97;;;4.70;99.90;;;4.62;100.00;100069.94;4983971;28;20251;-74
2022/11/20 10:01:34;;;;;;;11.35;3.75;;;4.80;99.90;;;4.76;100.00;100082.56;4952947;28;20237;-74
2022/11/20 10:04:20;;;;;;;8.02;3.03;;;4.80;99.90;;;4.90;100.00;100088.16;4958486;28;20235;-73
2022/11/20 10:07:18;;;;;;;11.10;4.65;;;5.00;99.90;;;4.88;100.00;100088.97;4968416;28;20232;-73
2022/11/20 10:10:02;;;;;;;9.77;3.40;;;5.00;99.90;;;5.00;100.00;100091.91;4978705;28;20236;-73
2022/11/20 10:13:21;;;;;;;6.63;2.47;;;5.10;99.90;;;4.94;100.00;100090.00;4969682;28;20235;-73
2022/11/20 10:16:14;;;;;;;8.55;3.20;;;5.00;99.90;;;5.12;100.00;100106.22;4959413;28;20281;-73
2022/11/20 10:19:06;;;;;;;8.82;3.17;;;5.10;99.90;;;5.11;100.00;100091.34;4989493;28;20255;-74
2022/11/20 10:22:21;;;;;;;9.60;3.58;;;5.20;99.90;;;5.00;100.00;100073.56;4976200;28;20224;-74
2022/11/20 10:25:39;;;;;;;8.10;3.22;;;5.10;99.90;;;5.16;100.00;100088.81;4986726;28;20243;-74
2022/11/20 10:28:26;;;;;;;9.45;3.35;;;5.20;99.90;;;5.05;100.00;100085.94;4967793;28;20314;-75
2022/11/20 10:31:06;;;;;;;4.72;1.92;;;5.20;99.90;;;5.19;100.00;100082.78;4991631;28;20381;-74
2022/11/20 10:33:39;;;;;;;11.60;4.32;;;5.30;99.90;;;5.26;100.00;100093.47;4959524;28;20710;-74
2022/11/20 10:36:36;;;;;;;11.32;4.35;;;5.30;99.90;;;5.26;100.00;100087.34;4979027;28;20487;-74
2022/11/20 10:39:22;;;;;;;15.88;5.85;;;5.40;99.90;;;5.31;100.00;100094.47;4970638;28;20236;-74
2022/11/20 10:41:53;;;;;;;6.95;3.15;;;5.40;99.90;;;5.56;100.00;100103.81;4962915;28;20239;-74
2022/11/20 10:47:23;;;;;;;12.75;4.57;;;5.80;99.90;;;5.76;100.00;100096.41;4972962;28;20224;-74
2022/11/20 10:50:05;;;;;;;9.88;3.65;;;5.90;99.90;;;5.90;100.00;100110.78;4972750;28;20227;-74
2022/11/20 10:52:42;;;;;;;9.27;3.60;;;5.90;99.90;;;5.87;100.00;100101.91;4980366;28;20223;-74
2022/11/20 10:55:33;;;;;;;5.97;2.50;;;6.00;99.90;;;5.82;100.00;100098.28;4969968;28;20239;-74